Time;durP1;ratioP1;P1;durP2;ratioP2;P2;SDS_P1;SDS_P2;PMS_P1;PMS_P2;Temp;Humidity;BMP_temperature;BMP_pressure;BME280_temperature;BME280_humidity;BME280_pressure;Samples;Min_cycle;Max_cycle;Signal;HPM_P1;HPM_P2
2023/12/22 00:01:05;;;;;;;5.37;1.77;;;5.00;99.90;;;;;;5051545;28;20203;-56
2023/12/22 00:03:31;;;;;;;9.43;2.33;;;4.90;99.90;;;;;;5078037;28;20205;-56
2023/12/22 00:05:56;;;;;;;7.73;2.70;;;4.90;99.90;;;;;;5072108;28;20257;-55
2023/12/22 00:08:23;;;;;;;5.97;2.03;;;4.90;99.90;;;;;;5077518;28;21006;-56
2023/12/22 00:10:49;;;;;;;5.87;2.50;;;4.80;99.90;;;;;;5076293;28;20189;-54
2023/12/22 00:13:14;;;;;;;3.60;1.70;;;4.80;99.90;;;;;;5055831;28;20190;-54
2023/12/22 00:15:40;;;;;;;5.33;1.97;;;4.70;99.90;;;;;;5078718;28;20303;-55
2023/12/22 00:18:06;;;;;;;6.70;2.07;;;4.70;99.90;;;;;;5079043;28;20201;-55
2023/12/22 00:20:31;;;;;;;9.10;2.30;;;4.70;99.90;;;;;;5076888;28;20193;-55
2023/12/22 00:22:57;;;;;;;4.53;2.10;;;4.70;99.90;;;;;;5074218;28;20991;-55
2023/12/22 00:25:22;;;;;;;9.10;2.90;;;4.80;99.90;;;;;;5071057;28;20197;-54
2023/12/22 00:27:48;;;;;;;9.27;1.93;;;4.80;99.90;;;;;;5070901;28;20210;-55
2023/12/22 00:30:14;;;;;;;6.50;2.60;;;4.80;99.90;;;;;;5051936;28;20291;-56
2023/12/22 00:32:39;;;;;;;7.63;2.67;;;4.80;99.90;;;;;;5077434;28;20674;-55
2023/12/22 00:35:05;;;;;;;15.13;3.10;;;4.90;99.90;;;;;;5077736;28;20209;-55
2023/12/22 00:37:30;;;;;;;10.37;2.80;;;4.90;99.90;;;;;;5074857;28;20245;-55
2023/12/22 00:39:56;;;;;;;11.40;2.80;;;4.80;99.90;;;;;;5072783;28;20204;-63
2023/12/22 00:42:21;;;;;;;10.00;2.57;;;4.80;99.90;;;;;;5073949;28;20220;-62
2023/12/22 00:44:47;;;;;;;11.70;3.43;;;4.90;99.90;;;;;;5077843;28;20250;-65
2023/12/22 00:47:13;;;;;;;10.50;2.43;;;4.90;99.90;;;;;;5078502;28;20199;-65
2023/12/22 00:49:38;;;;;;;8.63;3.00;;;4.90;99.90;;;;;;5048426;28;21330;-64
2023/12/22 00:52:04;;;;;;;8.57;2.20;;;4.80;99.90;;;;;;5076039;28;20646;-62
2023/12/22 00:54:31;;;;;;;8.93;2.40;;;4.90;99.90;;;;;;5056946;28;20709;-66
2023/12/22 00:56:57;;;;;;;9.80;2.80;;;4.90;99.90;;;;;;5052471;28;20253;-55
2023/12/22 00:59:23;;;;;;;9.60;2.70;;;4.80;99.90;;;;;;5056945;28;20686;-54
2023/12/22 01:01:49;;;;;;;9.37;2.27;;;4.80;99.90;;;;;;5071286;28;20225;-54
2023/12/22 01:04:15;;;;;;;8.93;2.60;;;4.80;99.90;;;;;;5073319;28;20545;-54
2023/12/22 01:06:40;;;;;;;10.70;3.33;;;4.70;99.90;;;;;;5072043;28;20185;-52
2023/12/22 01:09:06;;;;;;;6.10;2.60;;;4.70;99.90;;;;;;5069791;28;20208;-52
2023/12/22 01:11:32;;;;;;;10.80;2.07;;;4.70;99.90;;;;;;5071227;28;20211;-52
2023/12/22 01:13:57;;;;;;;6.53;2.40;;;4.70;99.90;;;;;;5070052;28;20223;-52
2023/12/22 01:16:23;;;;;;;9.67;2.57;;;4.60;99.90;;;;;;5054241;28;20250;-50
2023/12/22 01:18:50;;;;;;;10.53;2.10;;;4.60;99.90;;;;;;5077272;28;20189;-51
2023/12/22 01:21:16;;;;;;;10.37;2.53;;;4.60;99.90;;;;;;5056423;28;20265;-51
2023/12/22 01:23:41;;;;;;;10.43;3.40;;;4.50;99.90;;;;;;5073963;28;20192;-51
2023/12/22 01:26:07;;;;;;;7.70;2.53;;;4.60;99.90;;;;;;5071246;28;20628;-51
2023/12/22 01:28:33;;;;;;;12.77;3.50;;;4.50;99.90;;;;;;5076045;28;20254;-51
2023/12/22 01:31:01;;;;;;;7.60;2.83;;;4.60;99.90;;;;;;5073498;28;20208;-50
2023/12/22 01:33:27;;;;;;;7.83;2.10;;;4.50;99.90;;;;;;5070647;28;20209;-51
2023/12/22 01:35:52;;;;;;;8.43;2.50;;;4.50;99.90;;;;;;5076580;28;20193;-50
2023/12/22 01:38:18;;;;;;;11.87;3.37;;;4.50;99.90;;;;;;5076900;28;20540;-50
2023/12/22 01:40:44;;;;;;;8.80;2.50;;;4.50;99.90;;;;;;5077344;28;20219;-52
2023/12/22 01:43:09;;;;;;;10.50;2.30;;;4.50;99.90;;;;;;5080184;28;20240;-50
2023/12/22 01:45:35;;;;;;;4.10;2.60;;;4.50;99.90;;;;;;5087691;28;20779;-50
2023/12/22 01:48:02;;;;;;;7.10;2.97;;;4.40;99.90;;;;;;5084819;28;20211;-50
2023/12/22 01:50:28;;;;;;;10.90;2.30;;;4.40;99.90;;;;;;5084808;28;20196;-53
2023/12/22 01:52:54;;;;;;;7.07;2.33;;;4.30;99.90;;;;;;5093452;28;20561;-58
2023/12/22 01:55:21;;;;;;;8.30;2.57;;;4.30;99.90;;;;;;5079386;28;20197;-57
2023/12/22 01:57:47;;;;;;;7.33;2.23;;;4.40;99.90;;;;;;5079363;28;20229;-51
2023/12/22 02:00:13;;;;;;;11.83;3.07;;;4.40;99.90;;;;;;5083445;28;20244;-51
2023/12/22 02:02:40;;;;;;;6.40;2.93;;;4.40;99.90;;;;;;5086107;28;20382;-51
2023/12/22 02:05:09;;;;;;;11.93;2.83;;;4.40;99.90;;;;;;5080480;28;20219;-52
2023/12/22 02:07:34;;;;;;;14.43;3.43;;;4.50;99.90;;;;;;5078824;28;20778;-51
2023/12/22 02:10:00;;;;;;;5.90;2.73;;;4.50;99.90;;;;;;5086090;28;20202;-52
2023/12/22 02:12:26;;;;;;;9.00;2.27;;;4.50;99.90;;;;;;5059193;28;20251;-52
2023/12/22 02:14:51;;;;;;;15.60;2.93;;;4.50;99.90;;;;;;5084179;28;20213;-51
2023/12/22 02:17:32;;;;;;;13.00;3.17;;;4.40;99.90;;;;;;5059587;28;20215;-51
2023/12/22 02:19:58;;;;;;;9.03;2.70;;;4.40;99.90;;;;;;5081003;28;20192;-51
2023/12/22 02:22:24;;;;;;;4.57;2.47;;;4.40;99.90;;;;;;5083812;28;20295;-51
2023/12/22 02:24:50;;;;;;;10.33;2.67;;;4.30;99.90;;;;;;5077649;28;20626;-51
2023/12/22 02:27:33;;;;;;;7.57;2.40;;;4.30;99.90;;;;;;5079914;28;20204;-51
2023/12/22 02:30:01;;;;;;;12.97;2.67;;;4.30;99.90;;;;;;5080783;28;20202;-51
2023/12/22 02:32:35;;;;;;;5.27;2.53;;;4.20;99.90;;;;;;5080892;28;20197;-53
2023/12/22 02:35:04;;;;;;;9.17;3.00;;;4.20;99.90;;;;;;5083258;28;20701;-51
2023/12/22 02:37:32;;;;;;;9.53;2.40;;;4.20;99.90;;;;;;5079795;28;20193;-51
2023/12/22 02:39:59;;;;;;;5.30;2.10;;;4.30;99.90;;;;;;5076415;28;20424;-51
2023/12/22 02:42:29;;;;;;;7.63;2.90;;;4.20;99.90;;;;;;5091609;28;20221;-51
2023/12/22 02:44:57;;;;;;;7.57;2.07;;;4.20;99.90;;;;;;5063041;28;20197;-51
2023/12/22 02:47:22;;;;;;;14.77;2.47;;;4.10;99.90;;;;;;5082005;28;20695;-51
2023/12/22 02:49:47;;;;;;;8.07;2.87;;;4.20;99.90;;;;;;5082733;28;20603;-51
2023/12/22 02:52:13;;;;;;;7.53;1.97;;;4.20;99.90;;;;;;5080082;28;20216;-52
2023/12/22 02:54:39;;;;;;;7.80;1.77;;;4.20;99.90;;;;;;5081287;28;20220;-52
2023/12/22 02:57:08;;;;;;;5.73;2.20;;;4.20;99.90;;;;;;5084898;28;20227;-51
2023/12/22 02:59:34;;;;;;;4.90;2.00;;;4.20;99.90;;;;;;5076916;28;20217;-52
2023/12/22 03:01:59;;;;;;;7.33;1.90;;;4.10;99.90;;;;;;5078066;28;20350;-52
2023/12/22 03:04:25;;;;;;;7.20;1.90;;;4.10;99.90;;;;;;5077841;28;20610;-52
2023/12/22 03:06:50;;;;;;;5.53;2.17;;;4.10;99.90;;;;;;5081752;28;20575;-52
2023/12/22 03:09:16;;;;;;;7.83;2.13;;;4.10;99.90;;;;;;5081360;28;20212;-51
2023/12/22 03:11:41;;;;;;;5.90;1.80;;;4.00;99.90;;;;;;5080415;28;20279;-52
2023/12/22 03:14:07;;;;;;;4.63;1.73;;;4.00;99.90;;;;;;5080912;28;20681;-52
2023/12/22 03:16:33;;;;;;;5.03;1.53;;;4.00;99.90;;;;;;5069470;28;20609;-52
2023/12/22 03:18:58;;;;;;;3.93;2.00;;;4.00;99.90;;;;;;5080207;28;20319;-52
2023/12/22 03:21:24;;;;;;;6.67;1.67;;;3.90;99.90;;;;;;5059240;28;20233;-52
2023/12/22 03:23:49;;;;;;;2.93;1.50;;;3.90;99.90;;;;;;5074511;28;20200;-52
2023/12/22 03:26:14;;;;;;;7.83;2.23;;;3.90;99.90;;;;;;5081901;28;20205;-52
2023/12/22 03:28:40;;;;;;;3.87;1.97;;;3.90;99.90;;;;;;5080744;28;20196;-52
2023/12/22 03:31:06;;;;;;;6.57;1.70;;;3.80;99.90;;;;;;5087645;28;20212;-52
2023/12/22 03:33:32;;;;;;;3.40;1.50;;;3.90;99.90;;;;;;5089912;28;20188;-53
2023/12/22 03:35:58;;;;;;;4.87;1.87;;;3.90;99.90;;;;;;5087772;28;20696;-52
2023/12/22 03:38:23;;;;;;;4.57;2.67;;;4.00;99.90;;;;;;5086442;28;20211;-52
2023/12/22 03:40:48;;;;;;;9.90;2.23;;;3.90;99.90;;;;;;5063151;28;20212;-52
2023/12/22 03:43:14;;;;;;;4.93;1.63;;;3.90;99.90;;;;;;5081011;28;20219;-52
2023/12/22 03:45:39;;;;;;;5.00;2.03;;;3.90;99.90;;;;;;5081761;28;20208;-52
2023/12/22 03:48:05;;;;;;;4.27;1.77;;;4.00;99.90;;;;;;5088320;28;20208;-53
2023/12/22 03:50:31;;;;;;;4.97;2.13;;;4.00;99.90;;;;;;5081345;28;20318;-51
2023/12/22 03:52:56;;;;;;;4.87;1.83;;;4.00;99.90;;;;;;5080760;28;20363;-52
2023/12/22 03:55:22;;;;;;;5.10;1.57;;;4.00;99.90;;;;;;5083455;28;20196;-51
2023/12/22 03:57:47;;;;;;;6.13;1.90;;;4.00;99.90;;;;;;5087028;28;20223;-52
2023/12/22 04:00:14;;;;;;;1.80;1.27;;;4.10;99.90;;;;;;5087376;28;20207;-52
2023/12/22 04:02:40;;;;;;;6.27;1.60;;;4.10;99.90;;;;;;5084242;28;20219;-52
2023/12/22 04:05:05;;;;;;;3.43;1.03;;;4.10;99.90;;;;;;5068563;28;20264;-52
2023/12/22 04:07:31;;;;;;;2.90;1.50;;;4.10;99.90;;;;;;5079957;28;20717;-52
2023/12/22 04:09:56;;;;;;;1.50;1.10;;;4.00;99.90;;;;;;5074609;28;20699;-52
2023/12/22 04:12:22;;;;;;;2.13;0.77;;;4.00;99.90;;;;;;5062349;28;20786;-52
2023/12/22 04:14:47;;;;;;;1.30;1.10;;;4.00;99.90;;;;;;5057765;28;20608;-53
2023/12/22 04:17:13;;;;;;;2.07;1.07;;;3.80;99.90;;;;;;5082908;28;20200;-52
2023/12/22 04:19:38;;;;;;;5.13;1.40;;;3.60;99.90;;;;;;5077285;28;20584;-62
2023/12/22 04:22:04;;;;;;;1.10;0.90;;;3.60;99.90;;;;;;5081187;28;20229;-52
2023/12/22 04:24:29;;;;;;;1.27;0.67;;;3.50;99.90;;;;;;5079799;28;20204;-52
2023/12/22 04:26:55;;;;;;;2.37;0.73;;;3.30;99.90;;;;;;5081115;28;20206;-52
2023/12/22 04:29:20;;;;;;;4.03;0.97;;;3.20;99.90;;;;;;5077784;28;20200;-52
2023/12/22 04:31:46;;;;;;;2.23;1.10;;;3.20;99.90;;;;;;5083733;28;20208;-52
2023/12/22 04:34:15;;;;;;;5.10;1.53;;;3.30;99.90;;;;;;5091224;28;20254;-52
2023/12/22 04:36:41;;;;;;;9.10;1.70;;;3.30;99.90;;;;;;5079373;28;20185;-52
2023/12/22 04:39:06;;;;;;;1.80;1.20;;;3.30;99.90;;;;;;5086917;28;20332;-52
2023/12/22 04:41:32;;;;;;;4.77;2.30;;;3.30;99.90;;;;;;5083696;28;20248;-52
2023/12/22 04:43:58;;;;;;;8.23;2.37;;;3.40;99.90;;;;;;5083347;28;20671;-52
2023/12/22 04:46:23;;;;;;;1.27;0.93;;;3.40;99.90;;;;;;5081863;28;20198;-52
2023/12/22 04:48:49;;;;;;;3.50;1.30;;;3.40;99.90;;;;;;5078152;28;20250;-52
2023/12/22 04:51:14;;;;;;;3.60;1.00;;;3.50;99.90;;;;;;5056562;28;20211;-52
2023/12/22 04:53:40;;;;;;;4.30;1.67;;;3.50;99.90;;;;;;5080382;28;20209;-53
2023/12/22 04:56:05;;;;;;;7.37;1.63;;;3.60;99.90;;;;;;5081197;28;20215;-52
2023/12/22 04:58:31;;;;;;;2.57;1.20;;;3.50;99.90;;;;;;5082790;28;20788;-53
2023/12/22 05:00:59;;;;;;;7.03;1.27;;;3.50;99.90;;;;;;5071783;28;20207;-52
2023/12/22 05:03:24;;;;;;;4.93;1.60;;;3.30;99.90;;;;;;5087614;28;20202;-52
2023/12/22 05:05:50;;;;;;;2.33;1.73;;;3.10;99.90;;;;;;5078043;28;20207;-52
2023/12/22 05:08:16;;;;;;;1.93;1.20;;;2.70;99.90;;;;;;5076411;28;20619;-52
2023/12/22 05:10:41;;;;;;;3.00;1.30;;;2.60;99.90;;;;;;5086272;28;20464;-52
2023/12/22 05:13:07;;;;;;;2.63;1.00;;;2.50;99.90;;;;;;5079989;28;20573;-52
2023/12/22 05:15:32;;;;;;;6.57;1.20;;;2.40;99.90;;;;;;5082605;28;20231;-51
2023/12/22 05:17:58;;;;;;;3.83;0.90;;;2.30;99.90;;;;;;5089076;28;20616;-52
2023/12/22 05:20:23;;;;;;;2.73;1.50;;;2.40;99.90;;;;;;5079761;28;20195;-52
2023/12/22 05:22:49;;;;;;;6.97;1.53;;;2.40;99.90;;;;;;5083288;28;20348;-52
2023/12/22 05:25:14;;;;;;;4.13;1.60;;;2.50;99.90;;;;;;5082246;28;20213;-52
2023/12/22 05:27:42;;;;;;;3.80;1.23;;;2.50;99.90;;;;;;5078462;28;20211;-51
2023/12/22 05:30:08;;;;;;;2.00;1.50;;;2.60;99.90;;;;;;5084119;28;20222;-52
2023/12/22 05:32:34;;;;;;;3.73;1.20;;;2.60;99.90;;;;;;5084558;28;20566;-52
2023/12/22 05:34:59;;;;;;;6.30;1.57;;;2.60;99.90;;;;;;5086335;28;20214;-52
2023/12/22 05:37:25;;;;;;;4.07;1.93;;;2.70;99.90;;;;;;5080889;28;20234;-52
2023/12/22 05:39:50;;;;;;;5.77;1.23;;;2.70;99.90;;;;;;5079785;28;20228;-52
2023/12/22 05:42:16;;;;;;;3.30;1.70;;;2.70;99.90;;;;;;5086547;28;20826;-52
2023/12/22 05:44:41;;;;;;;8.17;1.10;;;2.70;99.90;;;;;;5087434;28;20193;-52
2023/12/22 05:47:08;;;;;;;5.17;1.20;;;2.70;99.90;;;;;;5083903;28;20201;-52
2023/12/22 05:49:33;;;;;;;2.43;1.40;;;2.70;99.90;;;;;;5087554;28;20199;-52
2023/12/22 05:51:59;;;;;;;2.80;1.30;;;2.70;99.90;;;;;;5061827;28;20613;-52
2023/12/22 05:54:25;;;;;;;1.10;0.90;;;2.70;99.90;;;;;;5087818;28;20669;-52
2023/12/22 05:56:51;;;;;;;4.80;1.40;;;2.70;99.90;;;;;;5087830;28;20257;-51
2023/12/22 05:59:17;;;;;;;6.27;1.23;;;2.70;99.90;;;;;;5084131;28;20200;-52
2023/12/22 06:01:43;;;;;;;3.47;0.87;;;2.70;99.90;;;;;;5084980;28;20218;-52
2023/12/22 06:04:08;;;;;;;4.47;0.77;;;2.90;99.90;;;;;;5082898;28;20218;-53
2023/12/22 06:06:35;;;;;;;4.43;1.37;;;2.90;99.90;;;;;;5073565;28;20859;-52
2023/12/22 06:09:01;;;;;;;4.33;1.40;;;3.00;99.90;;;;;;5084207;28;20211;-52
2023/12/22 06:11:27;;;;;;;3.83;1.10;;;3.00;99.90;;;;;;5077540;28;20556;-53
2023/12/22 06:13:52;;;;;;;6.97;1.97;;;3.10;99.90;;;;;;5093063;28;20199;-52
2023/12/22 06:16:18;;;;;;;4.13;1.27;;;3.10;99.90;;;;;;5061692;28;20245;-51
2023/12/22 06:18:43;;;;;;;4.60;1.47;;;3.10;99.90;;;;;;5088073;28;20197;-52
2023/12/22 06:21:10;;;;;;;7.37;1.33;;;3.10;99.90;;;;;;5080474;28;20195;-52
2023/12/22 06:23:36;;;;;;;9.30;1.50;;;3.10;99.90;;;;;;5088258;28;20287;-52
2023/12/22 06:26:02;;;;;;;0.93;0.50;;;3.10;99.90;;;;;;5086528;28;20213;-52
2023/12/22 06:28:28;;;;;;;2.77;0.70;;;3.10;99.90;;;;;;5084611;28;21118;-52
2023/12/22 06:30:54;;;;;;;2.60;0.70;;;3.10;99.90;;;;;;5076950;28;20202;-52
2023/12/22 06:33:19;;;;;;;2.50;0.80;;;3.10;99.90;;;;;;5079502;28;20193;-51
2023/12/22 06:35:45;;;;;;;3.23;0.70;;;3.10;99.90;;;;;;5084781;28;20191;-52
2023/12/22 06:38:11;;;;;;;2.30;0.70;;;3.10;99.90;;;;;;5084702;28;20214;-52
2023/12/22 06:40:37;;;;;;;5.70;1.50;;;3.10;99.90;;;;;;5087151;28;20193;-52
2023/12/22 06:43:04;;;;;;;5.40;0.83;;;3.00;99.90;;;;;;5084709;28;20859;-54
2023/12/22 06:45:32;;;;;;;2.50;1.07;;;2.70;99.90;;;;;;5073299;28;20253;-51
2023/12/22 06:47:57;;;;;;;4.67;1.67;;;2.40;99.90;;;;;;5083519;28;20293;-51
2023/12/22 06:50:23;;;;;;;3.03;1.33;;;2.30;99.90;;;;;;5070766;28;20850;-51
2023/12/22 06:52:49;;;;;;;3.30;1.17;;;2.20;99.90;;;;;;5062743;28;20203;-56
2023/12/22 06:55:15;;;;;;;1.87;1.17;;;2.20;99.90;;;;;;5077771;28;20248;-58
2023/12/22 06:57:40;;;;;;;12.83;1.80;;;2.20;99.90;;;;;;5076552;28;20225;-53
2023/12/22 07:00:07;;;;;;;2.33;0.97;;;2.30;99.90;;;;;;5074490;28;20229;-63
2023/12/22 07:02:46;;;;;;;7.10;1.50;;;2.40;99.90;;;;;;5072809;28;20216;-53
2023/12/22 07:05:11;;;;;;;4.57;1.37;;;2.40;99.90;;;;;;5054802;28;20550;-55
2023/12/22 07:07:37;;;;;;;3.90;1.50;;;2.50;99.90;;;;;;5079252;28;20203;-54
2023/12/22 07:10:03;;;;;;;3.17;1.17;;;2.60;99.90;;;;;;5060423;28;20724;-54
2023/12/22 07:12:29;;;;;;;6.27;1.33;;;2.70;99.90;;;;;;5078255;28;20856;-54
2023/12/22 07:14:54;;;;;;;4.10;1.27;;;2.70;99.90;;;;;;5084681;28;20218;-54
2023/12/22 07:17:20;;;;;;;3.00;1.40;;;2.80;99.90;;;;;;5079373;28;20664;-54
2023/12/22 07:19:46;;;;;;;3.40;0.97;;;2.80;99.90;;;;;;5090895;28;20212;-54
2023/12/22 07:22:11;;;;;;;6.47;1.27;;;2.70;99.90;;;;;;5088792;28;20219;-55
2023/12/22 07:24:37;;;;;;;4.27;1.30;;;2.80;99.90;;;;;;5082614;28;20285;-55
2023/12/22 07:27:03;;;;;;;2.27;0.93;;;2.80;99.90;;;;;;5075581;28;20690;-55
2023/12/22 07:29:29;;;;;;;5.80;1.10;;;2.90;99.90;;;;;;5068630;28;20201;-54
2023/12/22 07:31:54;;;;;;;12.47;2.70;;;2.90;99.90;;;;;;5075898;28;20181;-58
2023/12/22 07:34:22;;;;;;;5.33;1.10;;;3.00;99.90;;;;;;5064497;28;20525;-65
2023/12/22 07:36:47;;;;;;;3.13;1.50;;;3.60;99.90;;;;;;5088106;28;20238;-55
2023/12/22 07:39:14;;;;;;;3.07;1.60;;;4.10;99.90;;;;;;5083885;28;20572;-55
2023/12/22 07:41:39;;;;;;;4.73;1.40;;;4.30;99.90;;;;;;5086507;28;20212;-56
2023/12/22 07:44:05;;;;;;;3.77;1.67;;;4.20;99.90;;;;;;5054832;28;20202;-56
2023/12/22 07:46:30;;;;;;;7.13;1.33;;;4.30;99.90;;;;;;5074075;28;20550;-55
2023/12/22 07:48:56;;;;;;;3.33;1.57;;;3.90;99.90;;;;;;5076499;28;20198;-55
2023/12/22 07:51:22;;;;;;;2.67;1.20;;;3.60;99.90;;;;;;5018581;23;20239;-54
2023/12/22 07:53:47;;;;;;;4.37;1.93;;;3.50;99.90;;;;;;4915537;28;20306;-56
2023/12/22 07:56:13;;;;;;;5.63;1.23;;;3.40;99.90;;;;;;4931724;28;20727;-56
2023/12/22 07:58:39;;;;;;;2.90;1.40;;;3.40;99.90;;;;;;4932249;28;20298;-56
2023/12/22 08:01:05;;;;;;;5.77;2.27;;;3.50;99.90;;;;;;4930694;28;20227;-56
2023/12/22 08:03:31;;;;;;;4.03;1.43;;;3.50;99.90;;;;;;4925436;28;20224;-55
2023/12/22 08:05:57;;;;;;;6.83;1.27;;;3.50;99.90;;;;;;4933212;28;20211;-55
2023/12/22 08:08:22;;;;;;;6.10;2.00;;;3.50;99.90;;;;;;4931902;28;20638;-55
2023/12/22 08:10:48;;;;;;;3.17;1.17;;;3.40;99.90;;;;;;4931796;28;20232;-55
2023/12/22 08:13:13;;;;;;;2.17;1.10;;;3.30;99.90;;;;;;4929804;28;20213;-55
2023/12/22 08:15:39;;;;;;;4.33;1.50;;;3.40;99.90;;;;;;4931222;28;20230;-55
2023/12/22 08:18:07;;;;;;;3.50;1.20;;;3.30;99.90;;;;;;4931756;28;20684;-55
2023/12/22 08:20:33;;;;;;;2.70;0.93;;;3.30;99.90;;;;;;4926596;28;20958;-55
2023/12/22 08:22:58;;;;;;;3.03;0.90;;;3.20;99.90;;;;;;4931560;28;20232;-55
2023/12/22 08:25:24;;;;;;;4.10;1.13;;;3.10;99.90;;;;;;4929899;28;20285;-54
2023/12/22 08:27:49;;;;;;;1.80;0.80;;;3.10;99.90;;;;;;4932120;28;20236;-54
2023/12/22 08:30:15;;;;;;;1.53;0.93;;;3.10;99.90;;;;;;4931270;28;20242;-54
2023/12/22 08:32:40;;;;;;;5.13;1.63;;;3.10;99.90;;;;;;4931407;28;20197;-54
2023/12/22 08:35:06;;;;;;;2.63;1.17;;;3.00;99.90;;;;;;4926195;28;20223;-54
2023/12/22 08:37:32;;;;;;;1.50;0.90;;;3.00;99.90;;;;;;4926904;28;20300;-56
2023/12/22 08:39:58;;;;;;;3.33;1.30;;;2.90;99.90;;;;;;4931253;28;20378;-54
2023/12/22 08:42:25;;;;;;;5.70;1.53;;;2.90;99.90;;;;;;4937330;28;20453;-54
2023/12/22 08:44:50;;;;;;;3.00;1.27;;;2.90;99.90;;;;;;4940767;28;20180;-54
2023/12/22 08:47:16;;;;;;;2.43;1.07;;;2.90;99.90;;;;;;4938921;28;20233;-54
2023/12/22 08:49:41;;;;;;;5.60;1.60;;;2.90;99.90;;;;;;4934427;28;20249;-54
2023/12/22 08:52:07;;;;;;;8.10;2.00;;;3.00;99.90;;;;;;4940079;28;20235;-54
2023/12/22 08:54:34;;;;;;;4.97;2.00;;;3.10;99.90;;;;;;4940238;29;20198;-54
2023/12/22 08:56:59;;;;;;;2.00;1.23;;;3.10;99.90;;;;;;4940606;28;20254;-54
2023/12/22 08:59:25;;;;;;;7.20;1.60;;;3.10;99.90;;;;;;4940748;28;20204;-54
2023/12/22 09:01:50;;;;;;;1.63;0.87;;;3.20;99.90;;;;;;4941235;28;20224;-54
2023/12/22 09:04:16;;;;;;;5.07;1.63;;;3.20;99.90;;;;;;4944185;28;20284;-54
2023/12/22 09:06:42;;;;;;;7.73;2.27;;;3.30;99.90;;;;;;4942570;28;20289;-54
2023/12/22 09:09:09;;;;;;;5.47;1.90;;;3.20;99.90;;;;;;4943798;28;20205;-55
2023/12/22 09:11:35;;;;;;;11.53;2.00;;;3.20;99.90;;;;;;4941486;28;20194;-56
2023/12/22 09:14:00;;;;;;;5.63;1.70;;;3.30;99.90;;;;;;4944503;28;20230;-59
2023/12/22 09:16:26;;;;;;;8.53;1.63;;;3.40;99.90;;;;;;4942178;28;20244;-55
2023/12/22 09:18:52;;;;;;;5.87;1.70;;;3.40;99.90;;;;;;4925348;28;20281;-55
2023/12/22 09:21:18;;;;;;;4.10;2.00;;;3.40;99.90;;;;;;4942936;28;20680;-55
2023/12/22 09:23:46;;;;;;;7.73;2.40;;;3.50;99.90;;;;;;4943944;28;20258;-56
2023/12/22 09:26:12;;;;;;;16.03;2.33;;;3.50;99.90;;;;;;4943276;28;20219;-56
2023/12/22 09:28:38;;;;;;;7.00;1.67;;;3.60;99.90;;;;;;4925145;28;20680;-56
2023/12/22 09:31:05;;;;;;;9.03;2.87;;;3.70;99.90;;;;;;4943145;29;20214;-56
2023/12/22 09:33:31;;;;;;;5.60;2.10;;;3.60;99.90;;;;;;4936604;28;20262;-55
2023/12/22 09:35:56;;;;;;;4.77;1.87;;;3.70;99.90;;;;;;4930744;28;20221;-54
2023/12/22 09:38:23;;;;;;;9.33;2.10;;;3.80;99.90;;;;;;4924117;28;20265;-55
2023/12/22 09:40:52;;;;;;;5.90;1.63;;;3.80;99.90;;;;;;4930314;28;20208;-55
2023/12/22 09:43:19;;;;;;;19.60;2.27;;;3.80;99.90;;;;;;4935739;28;20257;-55
2023/12/22 09:45:49;;;;;;;9.00;1.97;;;4.30;99.90;;;;;;4924091;28;20210;-57
2023/12/22 09:48:17;;;;;;;4.87;2.23;;;4.60;99.90;;;;;;4918982;28;20198;-58
2023/12/22 09:50:46;;;;;;;5.27;1.87;;;4.80;99.90;;;;;;4918536;28;20228;-56
2023/12/22 09:53:15;;;;;;;10.00;1.60;;;4.90;99.90;;;;;;4916336;29;20207;-68
2023/12/22 09:55:45;;;;;;;6.57;2.00;;;4.90;99.90;;;;;;4919669;28;20655;-55
2023/12/22 09:58:13;;;;;;;9.93;2.60;;;4.80;99.90;;;;;;4921951;28;20203;-66
2023/12/22 10:00:39;;;;;;;6.87;2.07;;;5.00;99.90;;;;;;4921375;29;20207;-64
2023/12/22 10:03:06;;;;;;;11.07;2.30;;;4.40;99.90;;;;;;4920161;28;20241;-57
2023/12/22 10:05:35;;;;;;;12.50;3.07;;;4.10;99.90;;;;;;4920971;28;20203;-55
2023/12/22 10:08:04;;;;;;;7.30;1.80;;;4.10;99.90;;;;;;4917195;28;20209;-63
2023/12/22 10:10:30;;;;;;;11.53;2.77;;;4.00;99.90;;;;;;4920848;29;20683;-61
2023/12/22 10:12:56;;;;;;;12.13;3.27;;;4.10;99.90;;;;;;4923052;28;20210;-54
2023/12/22 10:15:26;;;;;;;9.47;2.57;;;4.10;99.90;;;;;;4922040;28;20211;-55
2023/12/22 10:18:00;;;;;;;13.03;3.50;;;4.10;99.90;;;;;;4921107;28;20671;-57
2023/12/22 10:20:28;;;;;;;13.80;3.10;;;4.10;99.90;;;;;;4923201;28;20198;-54
2023/12/22 10:22:54;;;;;;;8.30;1.97;;;4.20;99.90;;;;;;4921911;28;20260;-54
2023/12/22 10:25:20;;;;;;;12.30;3.23;;;4.20;99.90;;;;;;4923743;29;20572;-54
2023/12/22 10:27:45;;;;;;;8.57;2.80;;;4.20;99.90;;;;;;4922925;28;20219;-54
2023/12/22 10:30:11;;;;;;;5.07;2.63;;;4.30;99.90;;;;;;4928362;28;20271;-54
2023/12/22 10:32:43;;;;;;;4.83;2.33;;;4.40;99.90;;;;;;4923794;28;20206;-55
2023/12/22 10:35:09;;;;;;;5.70;2.13;;;4.40;99.90;;;;;;4933688;28;20309;-55
2023/12/22 10:37:36;;;;;;;8.43;2.60;;;4.40;99.90;;;;;;4922787;28;20243;-56
2023/12/22 10:40:04;;;;;;;8.00;2.60;;;4.80;99.90;;;;;;4927419;28;20202;-55
2023/12/22 10:42:29;;;;;;;11.13;2.30;;;5.10;99.90;;;;;;4928581;28;20215;-68
2023/12/22 10:44:56;;;;;;;7.87;3.77;;;5.10;99.90;;;;;;4932477;28;20214;-55
2023/12/22 10:47:22;;;;;;;12.70;2.60;;;4.70;99.90;;;;;;4923872;28;20210;-55
2023/12/22 10:49:49;;;;;;;9.93;3.63;;;4.60;99.90;;;;;;4919236;28;20269;-57
2023/12/22 10:52:18;;;;;;;7.73;2.77;;;4.60;99.90;;;;;;4929872;28;20234;-56
2023/12/22 10:54:44;;;;;;;9.23;2.93;;;4.50;99.90;;;;;;4933551;28;20210;-55
2023/12/22 10:57:11;;;;;;;9.83;2.47;;;4.50;99.90;;;;;;4933451;28;20190;-55
2023/12/22 10:59:44;;;;;;;10.20;2.43;;;4.50;99.90;;;;;;4932810;28;20833;-55
2023/12/22 11:02:17;;;;;;;14.27;3.77;;;4.50;99.90;;;;;;4928346;28;20244;-56
2023/12/22 11:04:56;;;;;;;8.50;2.70;;;4.60;99.90;;;;;;4924593;28;20683;-56
2023/12/22 11:07:24;;;;;;;13.53;2.87;;;4.60;99.90;;;;;;4933457;28;20901;-58
2023/12/22 11:09:51;;;;;;;6.93;2.30;;;4.60;99.90;;;;;;4931755;28;20385;-54
2023/12/22 11:12:19;;;;;;;6.87;1.90;;;4.60;99.90;;;;;;4931380;28;20568;-54
2023/12/22 11:14:50;;;;;;;6.27;1.77;;;4.50;99.90;;;;;;4929257;28;20199;-54
2023/12/22 11:17:19;;;;;;;9.37;1.87;;;4.50;99.90;;;;;;4932832;28;20324;-53
2023/12/22 11:19:47;;;;;;;5.27;2.23;;;4.50;99.90;;;;;;4931069;28;20205;-63
2023/12/22 11:22:14;;;;;;;14.70;3.03;;;4.40;99.90;;;;;;4930370;28;20240;-65
2023/12/22 11:24:41;;;;;;;5.97;1.83;;;4.50;99.90;;;;;;4917454;28;20225;-55
2023/12/22 11:27:08;;;;;;;7.73;2.80;;;4.60;99.90;;;;;;4917576;28;20199;-56
2023/12/22 11:29:35;;;;;;;10.90;2.63;;;4.60;99.90;;;;;;4924403;28;20627;-61
2023/12/22 11:32:05;;;;;;;5.87;2.10;;;4.70;99.90;;;;;;4923930;28;20752;-55
2023/12/22 11:34:32;;;;;;;6.87;1.87;;;4.70;99.90;;;;;;4932478;28;20195;-55
2023/12/22 11:37:00;;;;;;;4.43;1.57;;;4.90;99.90;;;;;;4930306;28;20210;-55
2023/12/22 11:39:25;;;;;;;2.83;1.50;;;4.90;99.90;;;;;;4931230;28;20197;-54
2023/12/22 11:41:54;;;;;;;8.17;2.30;;;4.90;99.90;;;;;;4930946;28;20210;-54
2023/12/22 11:44:20;;;;;;;6.00;1.97;;;4.90;99.90;;;;;;4917488;28;20976;-54
2023/12/22 11:46:47;;;;;;;8.70;2.60;;;5.00;99.90;;;;;;4919699;28;20207;-54
2023/12/22 11:49:12;;;;;;;7.83;1.93;;;4.90;99.90;;;;;;4919527;28;20201;-55
2023/12/22 11:51:39;;;;;;;10.20;2.37;;;4.80;99.90;;;;;;4918769;28;20237;-56
2023/12/22 11:54:43;;;;;;;6.77;2.37;;;4.90;99.90;;;;;;4918536;28;20205;-56
2023/12/22 11:57:29;;;;;;;7.67;2.37;;;4.90;99.90;;;;;;4920737;29;20194;-55
2023/12/22 12:00:06;;;;;;;8.03;1.93;;;4.90;99.90;;;;;;4915871;28;20206;-55
2023/12/22 12:02:36;;;;;;;8.80;1.77;;;4.90;99.90;;;;;;4921228;28;20268;-55
2023/12/22 12:05:03;;;;;;;8.37;1.87;;;4.70;99.90;;;;;;4929059;28;20210;-55
2023/12/22 12:07:44;;;;;;;14.00;2.80;;;4.70;99.90;;;;;;4932335;28;20225;-55
2023/12/22 12:10:30;;;;;;;11.83;2.00;;;4.80;99.90;;;;;;4930498;28;20183;-55
2023/12/22 12:13:10;;;;;;;8.87;2.00;;;4.90;99.90;;;;;;4924743;28;20710;-54
2023/12/22 12:15:36;;;;;;;2.87;1.83;;;4.80;99.90;;;;;;4929631;28;20221;-55
2023/12/22 12:18:03;;;;;;;6.83;1.60;;;4.80;99.90;;;;;;4928439;28;20284;-55
2023/12/22 12:20:28;;;;;;;7.77;2.10;;;4.80;99.90;;;;;;4925594;28;20213;-55
2023/12/22 12:22:54;;;;;;;8.37;2.17;;;4.70;99.90;;;;;;4932521;28;20220;-54
2023/12/22 12:25:25;;;;;;;7.00;1.67;;;4.80;99.90;;;;;;4926104;28;20212;-55
2023/12/22 12:28:00;;;;;;;11.87;1.73;;;4.80;99.90;;;;;;4924927;28;20194;-55
2023/12/22 12:30:26;;;;;;;7.87;2.07;;;4.80;99.90;;;;;;4920197;28;20233;-55
2023/12/22 12:32:52;;;;;;;8.27;2.37;;;4.70;99.90;;;;;;4930499;28;20233;-55
2023/12/22 12:35:19;;;;;;;9.47;1.93;;;4.70;99.90;;;;;;4928712;28;20286;-55
2023/12/22 12:37:45;;;;;;;6.40;2.50;;;4.70;99.90;;;;;;4930668;28;20193;-55
2023/12/22 12:40:12;;;;;;;8.07;2.27;;;4.60;99.90;;;;;;4930308;28;20206;-55
2023/12/22 12:42:37;;;;;;;6.57;2.20;;;4.60;99.90;;;;;;4931707;28;20289;-54
2023/12/22 12:45:08;;;;;;;7.77;1.90;;;4.70;99.90;;;;;;4930482;28;20842;-55
2023/12/22 12:47:33;;;;;;;6.47;2.10;;;4.60;99.90;;;;;;4923748;28;20202;-54
2023/12/22 12:50:00;;;;;;;9.37;1.97;;;4.60;99.90;;;;;;4927507;28;20205;-55
2023/12/22 12:52:26;;;;;;;7.33;2.23;;;4.60;99.90;;;;;;4933567;28;20927;-56